Malé International Airport (MLE/VRMM)




Flight Aircraft Arriving
CPX979 B763
OKBK - Kuwait International Airport
Kuwait Kuwait City, Kuwait
Flight Aircraft Departing
CPX998 B763
FIMP - Sir Seewoosagur Ramgoolam International Airport
Mauritius Mauritius, Mauritius
Airport Information
Location: Male, MV
Coordinates: 4.19167 / 73.5292
Elevation:
Time Offset:
Local Time:
UTC Time:
Jet A Price: $1.2/lbs

Current Weather
METAR:
Warning: file_get_contents(https://api.aviationapi.com/v1/weather/metar?apt=VRMM): failed to open stream: HTTP request failed! HTTP/1.1 500 Internal Server Error in /var/www/capitollogistics/lib/skins/urban/hub/aptview.php on line 198
TAF: TAF VRMM 220500Z 2206/2312 27013KT 9999 SCT017TCU BKN120 TEMPO 2206/2212 3000 TSRA SCT017CB

Recent Arrivals
Date Flight Type Depart
09/04/2020 CPX998 B763 Sir Seewoosagur Ramgoolam International Airport (FIMP)
03/31/2020 CPX998 B763 Sir Seewoosagur Ramgoolam International Airport (FIMP)
12/22/2019 CPX998 B763 Sir Seewoosagur Ramgoolam International Airport (FIMP)
11/18/2019 CPX998 B763 Sir Seewoosagur Ramgoolam International Airport (FIMP)
Recent Departures
Date Flight Type Arrive
03/31/2020 CPX979 B763 Kuwait International Airport (OKBK)
12/23/2019 CPX979 B763 Kuwait International Airport (OKBK)
11/18/2019 CPX979 B763 Kuwait International Airport (OKBK)